Time,TemperatureF,DewpointF,PressureIn,WindDirection,WindDirectionDegrees,WindSpeedMPH,WindSpeedGustMPH,Humidity,HourlyPrecipIn,Conditions,Clouds,dailyrainin,SoftwareType,DateUTC
2013-01-29 00:10:00,26.3,24.0,29.72,ENE,73,0.0,0.0,89,0.00,,,0.00,weatherlink.com 1.10,2013-01-29 07:10:00,
2013-01-29 00:25:00,26.3,24.0,29.72,ENE,78,0.0,0.0,90,0.00,,,0.00,weatherlink.com 1.10,2013-01-29 07:25:00,
2013-01-29 00:40:00,25.7,23.0,29.73,East,88,0.0,0.0,89,0.00,,,0.00,weatherlink.com 1.10,2013-01-29 07:40:00,
2013-01-29 00:55:00,25.5,23.0,29.73,NE,49,0.0,0.0,89,0.00,,,0.00,weatherlink.com 1.10,2013-01-29 07:55:00,
2013-01-29 01:10:00,24.8,22.0,29.73,NE,49,0.0,0.0,88,0.00,,,0.00,weatherlink.com 1.10,2013-01-29 08:10:00,
2013-01-29 01:25:00,24.6,22.0,29.73,East,83,0.0,0.0,89,0.00,,,0.00,weatherlink.com 1.10,2013-01-29 08:25:00,
2013-01-29 01:41:00,24.2,22.0,29.73,ENE,74,0.0,0.0,89,0.00,,,0.00,weatherlink.com 1.10,2013-01-29 08:41:00,
2013-01-29 01:56:00,23.9,21.0,29.74,ENE,74,0.0,0.0,89,0.00,,,0.00,weatherlink.com 1.10,2013-01-29 08:56:00,
2013-01-29 02:11:00,23.8,21.0,29.74,ENE,74,0.0,0.0,89,0.00,,,0.00,weatherlink.com 1.10,2013-01-29 09:11:00,
2013-01-29 02:26:00,23.6,21.0,29.73,ENE,74,0.0,0.0,89,0.00,,,0.00,weatherlink.com 1.10,2013-01-29 09:26:00,
2013-01-29 02:41:00,23.5,21.0,29.74,ENE,74,0.0,0.0,89,0.00,,,0.00,weatherlink.com 1.10,2013-01-29 09:41:00,
2013-01-29 02:56:00,23.4,21.0,29.73,ENE,74,0.0,0.0,90,0.00,,,0.00,weatherlink.com 1.10,2013-01-29 09:56:00,
2013-01-29 03:11:00,23.1,20.0,29.73,ENE,74,0.0,0.0,89,0.00,,,0.00,weatherlink.com 1.10,2013-01-29 10:11:00,
2013-01-29 03:26:00,22.9,20.0,29.73,ENE,74,0.0,0.0,89,0.00,,,0.00,weatherlink.com 1.10,2013-01-29 10:26:00,
2013-01-29 03:41:00,22.7,20.0,29.73,ENE,74,0.0,0.0,89,0.00,,,0.00,weatherlink.com 1.10,2013-01-29 10:41:00,
2013-01-29 03:56:00,22.4,20.0,29.73,ENE,74,0.0,0.0,89,0.00,,,0.00,weatherlink.com 1.10,2013-01-29 10:56:00,
2013-01-29 04:11:00,22.2,20.0,29.73,ENE,74,0.0,0.0,89,0.00,,,0.00,weatherlink.com 1.10,2013-01-29 11:11:00,
2013-01-29 04:26:00,22.1,19.0,29.73,ENE,74,0.0,0.0,89,0.00,,,0.00,weatherlink.com 1.10,2013-01-29 11:26:00,
2013-01-29 04:41:00,22.2,20.0,29.73,ENE,74,0.0,0.0,89,0.00,,,0.00,weatherlink.com 1.10,2013-01-29 11:41:00,
2013-01-29 04:56:00,22.2,20.0,29.72,ENE,74,0.0,0.0,89,0.00,,,0.00,weatherlink.com 1.10,2013-01-29 11:56:00,
2013-01-29 05:11:00,22.2,20.0,29.72,ENE,74,0.0,0.0,89,0.00,,,0.00,weatherlink.com 1.10,2013-01-29 12:11:00,
2013-01-29 05:26:00,22.2,20.0,29.72,ENE,74,0.0,0.0,90,0.00,,,0.00,weatherlink.com 1.10,2013-01-29 12:26:00,
2013-01-29 05:41:00,22.2,20.0,29.73,ENE,74,0.0,0.0,89,0.00,,,0.00,weatherlink.com 1.10,2013-01-29 12:41:00,
2013-01-29 05:56:00,21.8,19.0,29.73,ENE,74,0.0,0.0,89,0.00,,,0.00,weatherlink.com 1.10,2013-01-29 12:56:00,
2013-01-29 06:11:00,21.7,19.0,29.73,ENE,75,0.0,0.0,89,0.00,,,0.00,weatherlink.com 1.10,2013-01-29 13:11:00,
2013-01-29 06:26:00,21.6,19.0,29.73,ENE,75,0.0,0.0,89,0.00,,,0.00,weatherlink.com 1.10,2013-01-29 13:26:00,
2013-01-29 06:41:00,21.3,18.0,29.73,ENE,75,0.0,0.0,88,0.00,,,0.00,weatherlink.com 1.10,2013-01-29 13:41:00,
2013-01-29 06:56:00,20.9,18.0,29.74,ENE,75,0.0,0.0,88,0.00,,,0.00,weatherlink.com 1.10,2013-01-29 13:56:00,
2013-01-29 07:11:00,20.5,18.0,29.74,ENE,75,0.0,0.0,88,0.00,,,0.00,weatherlink.com 1.10,2013-01-29 14:11:00,
2013-01-29 07:26:00,20.2,18.0,29.75,ENE,75,0.0,0.0,89,0.00,,,0.00,weatherlink.com 1.10,2013-01-29 14:26:00,
2013-01-29 07:41:00,20.2,18.0,29.75,ENE,75,0.0,0.0,89,0.00,,,0.00,weatherlink.com 1.10,2013-01-29 14:41:00,
2013-01-29 07:56:00,20.6,18.0,29.75,ENE,75,0.0,0.0,90,0.00,,,0.00,weatherlink.com 1.10,2013-01-29 14:56:00,
2013-01-29 08:11:00,21.2,19.0,29.76,ENE,75,0.0,0.0,90,0.00,,,0.00,weatherlink.com 1.10,2013-01-29 15:11:00,
2013-01-29 08:26:00,21.8,19.0,29.76,ENE,75,0.0,0.0,89,0.00,,,0.00,weatherlink.com 1.10,2013-01-29 15:26:00,
2013-01-29 08:41:00,22.4,20.0,29.76,ENE,76,0.0,0.0,89,0.00,,,0.00,weatherlink.com 1.10,2013-01-29 15:41:00,
2013-01-29 08:56:00,23.1,20.0,29.76,ENE,76,0.0,0.0,88,0.00,,,0.00,weatherlink.com 1.10,2013-01-29 15:56:00,
2013-01-29 09:11:00,24.0,20.0,29.77,ENE,76,0.0,0.0,85,0.00,,,0.00,weatherlink.com 1.10,2013-01-29 16:11:00,
2013-01-29 09:26:00,24.3,20.0,29.77,South,186,0.0,0.0,85,0.00,,,0.00,weatherlink.com 1.10,2013-01-29 16:26:00,
2013-01-29 09:41:00,25.1,20.0,29.77,SW,225,0.0,1.0,81,0.00,,,0.00,weatherlink.com 1.10,2013-01-29 16:41:00,
2013-01-29 09:57:00,26.1,20.0,29.77,SSE,159,0.0,1.0,79,0.00,,,0.00,weatherlink.com 1.10,2013-01-29 16:57:00,
2013-01-29 10:26:00,27.7,20.0,29.78,NE,39,2.0,3.0,72,0.00,,,0.00,weatherlink.com 1.10,2013-01-29 17:26:00,
2013-01-29 10:41:00,27.8,16.0,29.78,NNW,336,2.0,3.0,62,0.00,,,0.00,weatherlink.com 1.10,2013-01-29 17:41:00,
2013-01-29 10:57:00,28.0,12.0,29.78,ENE,74,0.0,3.0,52,0.00,,,0.00,weatherlink.com 1.10,2013-01-29 17:57:00,
2013-01-29 11:27:00,28.8,10.0,29.78,NW,313,0.0,4.0,46,0.00,,,0.00,weatherlink.com 1.10,2013-01-29 18:27:00,
2013-01-29 11:42:00,28.9,10.0,29.77,NW,306,1.0,6.0,45,0.00,,,0.00,weatherlink.com 1.10,2013-01-29 18:42:00,
2013-01-29 11:57:00,29.3,8.0,29.77,NNE,28,1.0,4.0,41,0.00,,,0.00,weatherlink.com 1.10,2013-01-29 18:57:00,
2013-01-29 12:12:00,29.2,9.0,29.77,NNE,32,2.0,4.0,42,0.00,,,0.00,weatherlink.com 1.10,2013-01-29 19:12:00,
2013-01-29 12:27:00,29.4,7.0,29.77,NE,37,2.0,4.0,39,0.00,,,0.00,weatherlink.com 1.10,2013-01-29 19:27:00,
2013-01-29 12:42:00,29.3,7.0,29.76,ENE,59,2.0,5.0,39,0.00,,,0.00,weatherlink.com 1.10,2013-01-29 19:42:00,
2013-01-29 12:57:00,29.6,7.0,29.76,East,100,6.0,8.0,39,0.00,,,0.00,weatherlink.com 1.10,2013-01-29 19:57:00,
2013-01-29 13:12:00,29.9,8.0,29.77,NNE,21,3.0,7.0,40,0.00,,,0.00,weatherlink.com 1.10,2013-01-29 20:12:00,
2013-01-29 13:27:00,30.2,7.0,29.77,ENE,60,0.0,9.0,38,0.00,,,0.00,weatherlink.com 1.10,2013-01-29 20:27:00,
2013-01-29 13:42:00,30.2,5.0,29.77,North,360,5.0,9.0,35,0.00,,,0.00,weatherlink.com 1.10,2013-01-29 20:42:00,
2013-01-29 13:57:00,29.9,9.0,29.78,NNE,28,2.0,9.0,41,0.00,,,0.00,weatherlink.com 1.10,2013-01-29 20:57:00,
2013-01-29 14:12:00,29.2,9.0,29.79,NE,38,3.0,8.0,42,0.00,,,0.00,weatherlink.com 1.10,2013-01-29 21:12:00,
2013-01-29 14:27:00,28.4,6.0,29.80,NE,34,1.0,8.0,38,0.00,,,0.00,weatherlink.com 1.10,2013-01-29 21:27:00,
2013-01-29 14:42:00,27.9,5.0,29.81,North,5,2.0,6.0,37,0.00,,,0.00,weatherlink.com 1.10,2013-01-29 21:42:00,
2013-01-29 14:57:00,28.0,6.0,29.83,NNE,28,2.0,5.0,40,0.00,,,0.00,weatherlink.com 1.10,2013-01-29 21:57:00,
2013-01-29 15:12:00,28.0,7.0,29.84,NNE,30,1.0,6.0,42,0.00,,,0.00,weatherlink.com 1.10,2013-01-29 22:12:00,
2013-01-29 15:27:00,28.3,9.0,29.85,NNE,31,0.0,3.0,45,0.00,,,0.00,weatherlink.com 1.10,2013-01-29 22:27:00,
2013-01-29 15:42:00,28.6,10.0,29.86,NW,321,0.0,5.0,45,0.00,,,0.00,weatherlink.com 1.10,2013-01-29 22:42:00,
2013-01-29 15:57:00,28.9,9.0,29.87,NNW,338,3.0,6.0,43,0.00,,,0.00,weatherlink.com 1.10,2013-01-29 22:57:00,
2013-01-29 16:12:00,28.5,9.0,29.88,NNW,340,1.0,4.0,44,0.00,,,0.00,weatherlink.com 1.10,2013-01-29 23:12:00,
2013-01-29 16:29:00,28.3,8.0,29.88,WNW,300,4.0,5.0,42,0.00,,,0.00,weatherlink.com 1.10,2013-01-29 23:29:00,
2013-01-29 16:42:00,28.1,8.0,29.89,NW,310,0.0,5.0,43,0.00,,,0.00,weatherlink.com 1.10,2013-01-29 23:42:00,
2013-01-29 16:57:00,27.7,8.0,29.91,NNE,15,1.0,4.0,43,0.00,,,0.00,weatherlink.com 1.10,2013-01-29 23:57:00,
2013-01-29 17:12:00,27.6,9.0,29.92,NNE,32,4.0,6.0,45,0.00,,,0.00,weatherlink.com 1.10,2013-01-30 00:12:00,
2013-01-29 17:27:00,27.2,10.0,29.93,NE,52,4.0,11.0,49,0.00,,,0.00,weatherlink.com 1.10,2013-01-30 00:27:00,
2013-01-29 17:43:00,26.4,13.0,29.95,NNE,32,2.0,7.0,56,0.00,,,0.00,weatherlink.com 1.10,2013-01-30 00:43:00,
2013-01-29 17:57:00,26.4,10.0,29.96,NNE,32,1.0,10.0,51,0.00,,,0.00,weatherlink.com 1.10,2013-01-30 00:57:00,
2013-01-29 18:12:00,26.6,9.0,29.97,NNE,30,6.0,11.0,48,0.00,,,0.00,weatherlink.com 1.10,2013-01-30 01:12:00,
2013-01-29 18:27:00,26.5,10.0,29.98,NNE,22,5.0,9.0,49,0.00,,,0.00,weatherlink.com 1.10,2013-01-30 01:27:00,
2013-01-29 18:43:00,26.2,9.0,30.00,NE,53,4.0,11.0,49,0.00,,,0.00,weatherlink.com 1.10,2013-01-30 01:43:00,
2013-01-29 18:58:00,25.6,9.0,30.00,NNW,346,5.0,11.0,49,0.00,,,0.00,weatherlink.com 1.10,2013-01-30 01:58:00,
2013-01-29 19:13:00,25.2,9.0,30.02,North,5,2.0,8.0,51,0.00,,,0.00,weatherlink.com 1.10,2013-01-30 02:13:00,
2013-01-29 19:28:00,25.0,10.0,30.03,NE,34,3.0,7.0,52,0.00,,,0.00,weatherlink.com 1.10,2013-01-30 02:28:00,
2013-01-29 19:43:00,24.7,10.0,30.03,NNE,12,4.0,8.0,53,0.00,,,0.00,weatherlink.com 1.10,2013-01-30 02:43:00,
2013-01-29 19:58:00,24.4,11.0,30.04,North,355,1.0,9.0,56,0.00,,,0.00,weatherlink.com 1.10,2013-01-30 02:58:00,
2013-01-29 20:13:00,24.0,11.0,30.05,NNE,22,3.0,9.0,59,0.00,,,0.00,weatherlink.com 1.10,2013-01-30 03:13:00,
2013-01-29 20:28:00,23.5,12.0,30.06,North,11,1.0,5.0,62,0.00,,,0.00,weatherlink.com 1.10,2013-01-30 03:28:00,
2013-01-29 20:43:00,23.0,12.0,30.06,NNE,21,2.0,7.0,62,0.00,,,0.00,weatherlink.com 1.10,2013-01-30 03:43:00,
2013-01-29 20:58:00,22.6,12.0,30.07,North,5,3.0,5.0,63,0.00,,,0.00,weatherlink.com 1.10,2013-01-30 03:58:00,
2013-01-29 21:13:00,22.4,11.0,30.08,North,5,2.0,6.0,63,0.00,,,0.00,weatherlink.com 1.10,2013-01-30 04:13:00,
2013-01-29 21:43:00,22.2,11.0,30.09,NE,42,1.0,6.0,63,0.00,,,0.00,weatherlink.com 1.10,2013-01-30 04:43:00,
2013-01-29 21:58:00,22.0,11.0,30.09,NE,34,2.0,3.0,64,0.00,,,0.00,weatherlink.com 1.10,2013-01-30 04:58:00,
2013-01-29 22:13:00,22.0,11.0,30.10,NNE,24,4.0,6.0,63,0.00,,,0.00,weatherlink.com 1.10,2013-01-30 05:13:00,
2013-01-29 22:28:00,22.0,11.0,30.10,NNE,32,0.0,8.0,62,0.00,,,0.00,weatherlink.com 1.10,2013-01-30 05:28:00,
2013-01-29 22:43:00,21.8,11.0,30.11,NE,40,3.0,5.0,62,0.00,,,0.00,weatherlink.com 1.10,2013-01-30 05:43:00,
2013-01-29 22:58:00,21.6,10.0,30.11,NE,45,0.0,4.0,61,0.00,,,0.00,weatherlink.com 1.10,2013-01-30 05:58:00,
2013-01-29 23:13:00,21.1,10.0,30.11,NNE,32,0.0,3.0,62,0.00,,,0.00,weatherlink.com 1.10,2013-01-30 06:13:00,
2013-01-29 23:28:00,20.6,10.0,30.11,NNE,32,0.0,2.0,64,0.00,,,0.00,weatherlink.com 1.10,2013-01-30 06:28:00,
2013-01-29 23:58:00,18.8,9.0,30.11,NNE,32,0.0,0.0,67,0.00,,,0.00,weatherlink.com 1.10,2013-01-30 06:58:00,